Latest Coastal Weather Observations for Wyndham Airport

IDW60701

Issued at 7:52 am WST Saturday 25 June 2016 (issued every 10 minutes, with the page automatically refreshed every 10 minutes)

About coastal observations | Map of coastal stations | Coastal observations for WA | Marine services | Other Formats
Station Details ID: 001006 Name: WYNDHAM AERO Lat: -15.51 Lon: 128.15 Height: 3.8 m
Data from the previous 72 hours. | See also: Recent months at Wyndham Airport
Date/Time
WST
Temp
°C
Wind Pressure Rain since
9am
mm
Weather Cloud Vis
km
Sea
Height
m
Swell
Dir  Spd
kts
Gust
kts
hPa Trend Height
m
Period
s
Dir
25/07:30am 23.8 NW 2 3 1014.0 - 0.0 - - - - - - -
25/07:00am 22.4 N 3 4 1013.6 - 0.0 - - - - - - -
25/06:30am 20.0 NNW 3 5 1013.3 - 0.0 - - - - - - -
25/06:00am 19.7 NW 3 4 1012.9 - 0.0 - - - - - - -
25/05:30am 19.5 WNW 3 4 1012.5 - 0.0 - - - - - - -
25/05:00am 20.3 W 3 4 1012.1 - 0.0 - - - - - - -
25/04:30am 20.6 NW 3 4 1011.9 - 0.0 - - - - - - -
25/04:00am 21.2 WNW 3 4 1011.8 - 0.0 - - - - - - -
25/03:30am 21.0 WNW 2 4 1011.7 - 0.0 - - - - - - -
25/03:00am 21.5 NW 4 5 1011.5 - 0.0 - - - - - - -
25/02:30am 21.8 WNW 3 5 1011.3 - 0.0 - - - - - - -
25/02:00am 21.4 NW 4 5 1011.3 - 0.0 - - - - - - -
25/01:30am 20.5 NW 4 5 1011.5 - 0.0 - - - - - - -
25/01:00am 20.5 WNW 5 5 1011.6 - 0.0 - - - - - - -
25/12:30am 20.6 NW 4 5 1011.8 - 0.0 - - - - - - -
25/12:00am 21.0 CALM 0 3 1011.9 - 0.0 - - - - - - -
 
Date/Time
WST
Temp
°C
Wind Pressure Rain since
9am
mm
Weather Cloud Vis
km
Sea
Height
m
Swell
Dir  Spd
kts
Gust
kts
hPa Trend Height
m
Period
s
Dir
24/11:30pm 20.9 E 3 4 1011.9 - 0.0 - - - - - - -
24/11:00pm 22.0 ESE 2 3 1012.0 - 0.0 - - - - - - -
24/10:30pm 21.9 CALM 0 0 1012.2 - 0.0 - - - - - - -
24/10:00pm 23.0 NNE 3 4 1012.2 - 0.0 - - - - - - -
24/09:30pm 23.7 ENE 4 4 1012.3 - 0.0 - - - - - - -
24/09:00pm 23.4 E 5 6 1012.4 - 0.0 - - - - - - -
24/08:30pm 24.2 ESE 4 5 1012.4 - 0.0 - - - - - - -
24/08:00pm 23.2 E 3 4 1012.2 - 0.0 - - - - - - -
24/07:30pm 24.4 E 4 5 1012.0 - 0.0 - - - - - - -
24/07:00pm 25.0 CALM 0 0 1011.8 - 0.0 - - - - - - -
24/06:30pm 27.0 NW 4 5 1011.5 - 0.0 - - - - - - -
24/06:00pm 28.0 NNW 5 6 1011.2 - 0.0 - - - - - - -
24/05:30pm 29.1 NW 4 5 1010.9 - 0.0 - - - - - - -
24/05:00pm 30.8 N 4 5 1010.6 - 0.0 - - - - - - -
24/04:30pm 32.1 N 8 10 1010.4 - 0.0 - - - - - - -
24/04:00pm 33.7 NE 8 15 1010.1 - 0.0 - - - - - - -
24/03:30pm 34.4 ESE 9 13 1009.8 - 0.0 - - - - - - -
24/03:00pm 34.9 ENE 8 13 1009.7 - 0.0 - - - - - - -
24/02:30pm 35.1 ENE 7 11 1009.7 - 0.0 - - - - - - -
24/02:00pm 35.1 E 9 12 1009.8 - 0.0 - - - - - - -
24/01:30pm 34.5 E 6 10 1009.9 - 0.0 - - - - - - -
24/01:00pm 35.0 E 7 11 1010.1 - 0.0 - - - - - - -
24/12:30pm 35.1 ESE 7 9 1010.5 - 0.0 - - - - - - -
24/12:00pm 34.2 E 6 9 1011.1 - 0.0 - - - - - - -
24/11:30am 33.2 SE 4 7 1011.8 - 0.0 - - - - - - -
24/11:00am 31.4 WSW 2 6 1012.5 - 0.0 - - - - - - -
24/10:30am 30.0 NW 3 5 1012.9 - 0.0 - - - - - - -
24/10:00am 28.3 WSW 4 6 1013.3 - 0.0 - - - - - - -
24/09:30am 27.5 SW 4 6 1013.5 - 0.0 - - - - - - -
24/09:00am 25.6 WSW 4 6 1013.5 - 0.0 - - - - - - -
24/08:30am 24.5 CALM 0 0 1013.5 - 0.0 - - - - - - -
24/08:00am 23.2 CALM 0 0 1013.5 - 0.0 - - - - - - -
24/07:30am 21.9 CALM 0 0 1013.3 - 0.0 - - - - - - -
24/07:00am 20.0 CALM 0 0 1012.9 - 0.0 - - - - - - -
24/06:30am 18.6 CALM 0 0 1012.7 - 0.0 - - - - - - -
24/06:00am 18.3 CALM 0 0 1012.3 - 0.0 - - - - - - -
24/05:30am 18.5 CALM 0 0 1012.2 - 0.0 - - - - - - -
24/05:00am 18.9 CALM 0 0 1012.1 - 0.0 - - - - - - -
24/04:30am 18.4 CALM 0 0 1011.7 - 0.0 - - - - - - -
24/04:00am 18.5 CALM 0 0 1011.5 - 0.0 - - - - - - -
24/03:30am 18.2 CALM 0 0 1011.6 - 0.0 - - - - - - -
24/03:00am 17.7 CALM 0 3 1011.6 - 0.0 - - - - - - -
24/02:30am 18.7 CALM 0 0 1011.7 - 0.0 - - - - - - -
24/02:00am 19.4 NNW 3 4 1011.7 - 0.0 - - - - - - -
24/01:30am 18.4 NNW 5 5 1011.9 - 0.0 - - - - - - -
24/01:00am 19.2 WSW 3 5 1011.9 - 0.0 - - - - - - -
24/12:30am 19.4 WSW 1 4 1012.2 - 0.0 - - - - - - -
24/12:00am 20.1 SE 4 6 1012.2 - 0.0 - - - - - - -
 
Date/Time
WST
Temp
°C
Wind Pressure Rain since
9am
mm
Weather Cloud Vis
km
Sea
Height
m
Swell
Dir  Spd
kts
Gust
kts
hPa Trend Height
m
Period
s
Dir
23/11:30pm 20.1 ESE 8 8 1011.8 - 0.0 - - - - - - -
23/11:00pm 21.8 ENE 5 6 1011.8 - 0.0 - - - - - - -
23/10:30pm 21.4 E 7 8 1011.7 - 0.0 - - - - - - -
23/10:00pm 22.0 E 7 9 1011.7 - 0.0 - - - - - - -
23/09:30pm 21.5 ENE 6 8 1011.5 - 0.0 - - - - - - -
23/09:00pm 22.2 E 10 12 1011.5 - 0.0 - - - - - - -
23/08:30pm 22.2 ESE 10 12 1011.2 - 0.0 - - - - - - -
23/08:00pm 21.5 WSW 1 3 1010.9 - 0.0 - - - - - - -
23/07:30pm 22.1 W 1 4 1010.7 - 0.0 - - - - - - -
23/07:00pm 22.8 WSW 3 3 1010.6 - 0.0 - - - - - - -
23/06:30pm 23.7 CALM 0 3 1010.4 - 0.0 - - - - - - -
23/06:00pm 24.9 N 5 6 1010.0 - 0.0 - - - - - - -
23/05:30pm 27.0 NW 4 7 1009.8 - 0.0 - - - - - - -
23/05:00pm 30.1 NNW 5 6 1009.6 - 0.0 - - - - - - -
23/04:30pm 32.3 NW 5 7 1009.4 - 0.0 - - - - - - -
23/04:00pm 33.4 WNW 7 9 1009.1 - 0.0 - - - - - - -
23/03:30pm 33.7 NW 6 10 1008.9 - 0.0 - - - - - - -
23/03:00pm 34.4 NW 6 11 1008.9 - 0.0 - - - - - - -
23/02:30pm 33.9 W 9 11 1008.9 - 0.0 - - - - - - -
23/02:00pm 34.2 WNW 7 9 1009.1 - 0.0 - - - - - - -
23/01:30pm 33.8 WNW 5 8 1009.5 - 0.0 - - - - - - -
23/01:00pm 33.5 WNW 6 11 1009.9 - 0.0 - - - - - - -
23/12:30pm 33.4 NNW 5 7 1010.6 - 0.0 - - - - - - -
23/12:00pm 32.2 NW 3 6 1011.1 - 0.0 - - - - - - -
23/11:30am 31.5 WSW 4 7 1011.8 - 0.0 - - - - - - -
23/11:00am 30.9 SW 5 8 1012.3 - 0.0 - - - - - - -
23/10:30am 30.2 WNW 4 6 1012.7 - 0.0 - - - - - - -
23/10:00am 28.4 SW 5 7 1013.2 - 0.0 - - - - - - -
23/09:30am 27.0 WSW 4 6 1013.4 - 0.0 - - - - - - -
23/09:00am 25.9 SW 4 6 1013.7 - 0.0 - - - - - - -
23/08:30am 24.9 WSW 4 5 1013.7 - 0.0 - - - - - - -
23/08:00am 23.6 WSW 4 6 1013.8 - 0.0 - - - - - - -
23/07:30am 22.5 WNW 4 5 1013.7 - 0.0 - - - - - - -
23/07:00am 19.8 WNW 1 4 1013.5 - 0.0 - - - - - - -
23/06:30am 16.4 CALM 0 0 1013.3 - 0.0 - - - - - - -
23/06:00am 15.4 CALM 0 0 1013.0 - 0.0 - - - - - - -
23/05:30am 15.4 E 6 7 1012.9 - 0.0 - - - - - - -
23/05:00am 15.1 ESE 7 7 1012.6 - 0.0 - - - - - - -
23/04:30am 16.5 NNW 3 4 1012.2 - 0.0 - - - - - - -
23/04:00am 16.7 NW 4 5 1012.0 - 0.0 - - - - - - -
23/03:30am 17.0 W 2 3 1011.9 - 0.0 - - - - - - -
23/03:00am 17.4 WSW 5 6 1011.8 - 0.0 - - - - - - -
23/02:30am 16.6 NW 5 6 1011.5 - 0.0 - - - - - - -
23/02:00am 16.5 CALM 0 0 1011.6 - 0.0 - - - - - - -
23/01:30am 17.3 CALM 0 0 1011.8 - 0.0 - - - - - - -
23/01:00am 18.7 E 4 5 1011.9 - 0.0 - - - - - - -
23/12:30am 18.4 E 6 6 1012.0 - 0.0 - - - - - - -
23/12:00am 19.3 E 5 6 1012.1 - 0.0 - - - - - - -
 
Date/Time
WST
Temp
°C
Wind Pressure Rain since
9am
mm
Weather Cloud Vis
km
Sea
Height
m
Swell
Dir  Spd
kts
Gust
kts
hPa Trend Height
m
Period
s
Dir
22/11:30pm 20.1 E 6 7 1012.2 - 0.0 - - - - - - -
22/11:00pm 19.7 ENE 4 5 1012.3 - 0.0 - - - - - - -
22/10:30pm 20.4 E 6 7 1012.2 - 0.0 - - - - - - -
22/10:00pm 20.0 ESE 7 7 1012.3 - 0.0 - - - - - - -
22/09:30pm 20.9 E 7 7 1012.3 - 0.0 - - - - - - -
22/09:00pm 19.6 CALM 0 0 1012.2 - 0.0 - - - - - - -
22/08:30pm 20.1 NE 4 5 1011.9 - 0.0 - - - - - - -
22/08:00pm 21.8 NE 3 4 1011.7 - 0.0 - - - - - - -
22/07:30pm 22.9 ESE 2 4 1011.4 - 0.0 - - - - - - -
22/07:00pm 24.1 S 1 5 1011.1 - 0.0 - - - - - - -
22/06:30pm 24.2 SW 3 6 1010.8 - 0.0 - - - - - - -
22/06:00pm 25.2 NNE 4 5 1010.4 - 0.0 - - - - - - -
22/05:30pm 26.6 N 5 6 1010.0 - 0.0 - - - - - - -
22/05:00pm 29.9 NNW 5 6 1009.7 - 0.0 - - - - - - -
22/04:30pm 32.4 WNW 7 9 1009.3 - 0.0 - - - - - - -
22/04:00pm 33.1 NNW 5 7 1009.3 - 0.0 - - - - - - -
22/03:30pm 34.0 NW 3 6 1009.3 - 0.0 - - - - - - -
22/03:00pm 33.3 WNW 6 9 1009.3 - 0.0 - - - - - - -
22/02:30pm 34.8 SSE 8 17 1009.0 - 0.0 - - - - - - -
22/02:00pm 32.6 ESE 6 10 1009.9 - 0.0 - - - - - - -
22/01:30pm 32.8 S 5 9 1010.3 - 0.0 - - - - - - -
22/01:00pm 33.0 NW 3 6 1010.7 - 0.0 - - - - - - -
22/12:30pm 33.1 SE 7 13 1011.1 - 0.0 - - - - - - -
22/12:00pm 31.9 ENE 7 11 1011.7 - 0.0 - - - - - - -
22/11:30am 31.4 ESE 5 7 1012.3 - 0.0 - - - - - - -
22/11:00am 31.1 E 7 11 1012.9 - 0.0 - - - - - - -
22/10:30am 31.2 E 7 12 1013.4 - 0.0 - - - - - - -
22/10:00am 30.2 ENE 5 14 1013.8 - 0.0 - - - - - - -
22/09:30am 29.2 SSE 4 7 1014.2 - 0.0 - - - - - - -
22/09:00am 27.6 SW 4 6 1014.2 - 0.0 - - - - - - -
22/08:30am 25.8 WSW 4 5 1014.2 - 0.0 - - - - - - -
22/08:00am 25.4 W 3 5 1014.2 - 0.0 - - - - - - -

Other Formats:

Comma delimited format used in spreadsheet applications
http://www.bom.gov.au/fwo/IDW60701/IDW60701.95214.axf

JavaScript Object Notation format (JSON) in row-major order
http://www.bom.gov.au/fwo/IDW60701/IDW60701.95214.json